Time;durP1;ratioP1;P1;durP2;ratioP2;P2;SDS_P1;SDS_P2;PMS_P1;PMS_P2;Temp;Humidity;BMP_temperature;BMP_pressure;BME280_temperature;BME280_humidity;BME280_pressure;Samples;Min_cycle;Max_cycle;Signal;HPM_P1;HPM_P2
2022/02/19 00:00:06;;;;;;;5.53;1.20;;;;;;;6.77;53.82;98970.53;5019440;28;20233;-74
2022/02/19 00:02:38;;;;;;;3.20;1.00;;;;;;;6.73;53.42;98969.81;5015316;28;20212;-75
2022/02/19 00:05:07;;;;;;;1.70;0.87;;;;;;;6.73;53.45;98963.78;5019595;28;20208;-75
2022/02/19 00:07:34;;;;;;;2.77;1.13;;;;;;;6.63;53.46;98974.50;5019875;28;20196;-72
2022/02/19 00:10:00;;;;;;;1.97;1.00;;;;;;;6.57;54.34;98982.47;5017393;28;20227;-75
2022/02/19 00:12:27;;;;;;;2.50;0.80;;;;;;;6.54;55.12;98961.84;5021368;28;20193;-75
2022/02/19 00:14:54;;;;;;;5.10;1.00;;;;;;;6.48;55.43;98964.66;5013066;28;20214;-77
2022/02/19 00:17:20;;;;;;;2.77;0.90;;;;;;;6.37;56.60;98965.06;5018923;28;20200;-76
2022/02/19 00:19:47;;;;;;;4.27;1.03;;;;;;;6.28;56.76;98967.97;5022608;28;20231;-75
2022/02/19 00:22:15;;;;;;;4.50;1.30;;;;;;;6.25;57.25;98971.50;5019405;28;20200;-75
2022/02/19 00:24:41;;;;;;;2.57;0.80;;;;;;;6.25;57.96;98970.66;5021988;28;20689;-74
2022/02/19 00:27:08;;;;;;;5.27;1.20;;;;;;;6.29;57.00;98972.25;5022603;28;20279;-74
2022/02/19 00:29:34;;;;;;;4.03;1.30;;;;;;;6.42;56.50;98981.28;5012451;28;20218;-75
2022/02/19 00:32:01;;;;;;;2.60;1.30;;;;;;;6.56;55.18;98991.16;5016667;28;20557;-75
2022/02/19 00:34:30;;;;;;;5.03;1.50;;;;;;;6.58;53.94;98991.94;5022588;28;20204;-75
2022/02/19 00:36:56;;;;;;;3.90;1.20;;;;;;;6.57;53.59;99003.19;5016573;28;20196;-75
2022/02/19 00:39:24;;;;;;;3.60;1.13;;;;;;;6.63;52.57;99028.00;5022637;28;20188;-75
2022/02/19 00:41:50;;;;;;;3.27;1.23;;;;;;;6.60;52.27;99028.97;5040490;28;20211;-75
2022/02/19 00:44:17;;;;;;;5.37;1.20;;;;;;;6.60;51.39;99060.06;5026693;28;20197;-75
2022/02/19 00:46:44;;;;;;;4.87;1.20;;;;;;;6.63;51.79;99044.41;5020870;28;20218;-73
2022/02/19 00:49:11;;;;;;;2.60;0.80;;;;;;;6.60;51.80;99052.28;5028135;28;20241;-74
2022/02/19 00:51:40;;;;;;;4.27;1.00;;;;;;;6.63;52.43;99048.72;5029329;28;20776;-73
2022/02/19 00:54:07;;;;;;;4.57;1.10;;;;;;;6.58;51.79;99050.66;5027723;28;20200;-74
2022/02/19 00:56:35;;;;;;;7.77;1.63;;;;;;;6.49;53.63;99075.13;5027704;28;20212;-77
2022/02/19 00:59:05;;;;;;;4.97;1.70;;;;;;;6.39;55.72;99072.00;5020108;28;20211;-74
2022/02/19 01:01:32;;;;;;;3.20;1.17;;;;;;;6.33;56.38;99089.47;5024471;28;20318;-77
2022/02/19 01:04:07;;;;;;;4.37;0.70;;;;;;;6.23;57.02;99065.66;5019950;28;20294;-76
2022/02/19 01:06:33;;;;;;;4.10;1.10;;;;;;;6.02;57.21;99041.31;5023095;28;20196;-75
2022/02/19 01:09:00;;;;;;;3.80;0.90;;;;;;;5.92;57.79;99032.13;5024690;28;20200;-74
2022/02/19 01:11:26;;;;;;;4.07;1.20;;;;;;;5.81;58.62;99037.66;5022972;28;20219;-74
2022/02/19 01:13:54;;;;;;;3.60;1.30;;;;;;;5.66;58.93;99041.53;5025895;28;20203;-74
2022/02/19 01:16:21;;;;;;;1.93;0.97;;;;;;;5.72;58.75;99032.75;5020245;28;20226;-75
2022/02/19 01:18:48;;;;;;;3.30;0.83;;;;;;;5.57;58.88;99039.25;5019222;28;20685;-75
2022/02/19 01:21:16;;;;;;;4.90;1.50;;;;;;;5.57;58.53;99034.09;5022476;28;20208;-75
2022/02/19 01:23:42;;;;;;;4.73;1.20;;;;;;;5.47;58.85;99026.63;5025179;28;20232;-77
2022/02/19 01:26:09;;;;;;;3.03;1.17;;;;;;;5.46;59.11;99037.00;5025073;28;20207;-74
2022/02/19 01:28:36;;;;;;;4.27;1.20;;;;;;;5.37;59.47;99037.28;5028154;28;20200;-74
2022/02/19 01:31:06;;;;;;;3.73;1.60;;;;;;;5.38;58.75;99029.50;5023557;28;20221;-73
2022/02/19 01:33:33;;;;;;;5.53;1.10;;;;;;;5.33;59.11;99041.72;5027750;28;20226;-75
2022/02/19 01:36:01;;;;;;;5.80;1.60;;;;;;;5.44;57.41;99044.81;5025248;28;20539;-74
2022/02/19 01:38:29;;;;;;;4.13;1.10;;;;;;;5.41;57.78;99056.97;5025890;28;20686;-74
2022/02/19 01:40:57;;;;;;;4.30;1.20;;;;;;;5.45;57.00;99059.44;5026454;28;20305;-74
2022/02/19 01:43:24;;;;;;;3.47;1.07;;;;;;;5.40;56.92;99063.88;5025046;28;20318;-74
2022/02/19 01:45:50;;;;;;;6.33;1.40;;;;;;;5.46;55.57;99061.09;5021172;28;20211;-75
2022/02/19 01:48:19;;;;;;;9.57;1.70;;;;;;;5.46;54.81;99050.75;5014663;28;20771;-73
2022/02/19 01:50:46;;;;;;;3.27;1.10;;;;;;;5.59;54.13;99058.16;5021516;28;20219;-76
2022/02/19 01:53:14;;;;;;;4.67;1.30;;;;;;;5.42;55.02;99061.25;5023153;28;20207;-73
2022/02/19 01:55:46;;;;;;;4.07;1.17;;;;;;;5.58;53.18;99093.50;5023032;28;20291;-74
2022/02/19 01:58:27;;;;;;;2.30;1.17;;;;;;;5.64;52.06;99082.13;5027228;28;20183;-76
2022/02/19 02:01:12;;;;;;;6.63;1.30;;;;;;;5.58;52.56;99083.16;5021903;28;20268;-74
2022/02/19 02:04:09;;;;;;;6.80;1.73;;;;;;;5.58;51.95;99097.84;5016502;28;20203;-74
2022/02/19 02:06:37;;;;;;;4.67;1.10;;;;;;;5.50;52.71;99109.25;5018291;28;20204;-73
2022/02/19 02:09:04;;;;;;;6.40;1.40;;;;;;;5.55;51.35;99088.41;5019996;28;20592;-75
2022/02/19 02:11:37;;;;;;;3.93;1.57;;;;;;;5.57;50.76;99084.03;5021124;28;20224;-76
2022/02/19 02:14:07;;;;;;;5.17;1.50;;;;;;;5.46;51.73;99074.03;5026920;28;20200;-73
2022/02/19 02:16:46;;;;;;;4.47;1.47;;;;;;;5.41;50.97;99088.00;5020644;28;20891;-75
2022/02/19 02:19:15;;;;;;;5.77;1.30;;;;;;;5.41;51.11;99094.00;5021531;28;20218;-72
2022/02/19 02:21:57;;;;;;;4.43;1.20;;;;;;;5.44;50.58;99093.06;5022336;28;20330;-75
2022/02/19 02:24:24;;;;;;;7.13;1.30;;;;;;;5.53;50.21;99110.06;5024179;28;20250;-74
2022/02/19 02:26:52;;;;;;;4.43;1.30;;;;;;;5.49;50.05;99071.34;5028652;28;20243;-76
2022/02/19 02:29:21;;;;;;;4.97;1.23;;;;;;;5.35;50.91;99091.59;5024923;28;20214;-74
2022/02/19 02:31:48;;;;;;;4.83;1.47;;;;;;;5.45;50.49;99103.38;5041219;28;20927;-74
2022/02/19 02:34:15;;;;;;;6.50;1.43;;;;;;;5.36;51.74;99051.94;5021075;28;20204;-74
2022/02/19 02:36:41;;;;;;;3.23;1.20;;;;;;;5.37;50.89;99082.06;5015768;28;20200;-75
2022/02/19 02:39:10;;;;;;;5.77;1.57;;;;;;;5.38;51.39;99098.41;5019491;28;20204;-74
2022/02/19 02:41:38;;;;;;;7.87;2.00;;;;;;;5.37;51.15;99094.16;5021115;28;20295;-74
2022/02/19 02:44:08;;;;;;;7.20;1.27;;;;;;;5.39;51.62;99076.84;5018099;28;20196;-76
2022/02/19 02:46:34;;;;;;;4.47;1.00;;;;;;;5.32;51.71;99083.94;5020355;28;20196;-75
2022/02/19 02:49:05;;;;;;;8.90;1.47;;;;;;;5.35;51.94;99078.69;5022159;28;20219;-74
2022/02/19 02:51:33;;;;;;;4.60;1.40;;;;;;;5.35;52.00;99078.69;5019711;28;20223;-75
2022/02/19 02:54:00;;;;;;;4.00;1.13;;;;;;;5.27;52.41;99085.81;5016229;28;20208;-75
2022/02/19 02:56:31;;;;;;;5.97;1.60;;;;;;;5.23;52.18;99092.81;5023444;28;20199;-75
2022/02/19 02:58:57;;;;;;;6.03;1.63;;;;;;;5.28;52.34;99087.50;5024101;28;20208;-75
2022/02/19 03:01:24;;;;;;;6.47;1.33;;;;;;;5.25;52.52;99085.00;5022751;28;20236;-75
2022/02/19 03:03:50;;;;;;;5.53;1.40;;;;;;;5.21;52.74;99098.91;5021603;28;20215;-75
2022/02/19 03:06:17;;;;;;;7.47;1.47;;;;;;;5.26;52.62;99097.06;5022852;28;20204;-74
2022/02/19 03:08:48;;;;;;;5.73;1.17;;;;;;;5.30;52.13;99119.31;5017620;28;20204;-74
2022/02/19 03:11:14;;;;;;;5.67;1.37;;;;;;;5.24;53.22;99109.16;5018206;28;20567;-74
2022/02/19 03:13:44;;;;;;;6.93;1.43;;;;;;;5.22;53.08;99111.75;5021231;28;20216;-73
2022/02/19 03:16:11;;;;;;;4.50;1.20;;;;;;;5.18;54.07;99104.16;5016175;28;20634;-74
2022/02/19 03:18:38;;;;;;;9.00;1.23;;;;;;;5.16;53.55;99095.63;5021407;28;20868;-75
2022/02/19 03:21:05;;;;;;;3.93;1.27;;;;;;;5.25;53.66;99108.25;5016813;28;20593;-74
2022/02/19 03:23:33;;;;;;;3.90;1.33;;;;;;;5.20;54.01;99113.56;5015928;28;20213;-74
2022/02/19 03:26:00;;;;;;;5.67;1.17;;;;;;;5.11;55.13;99098.31;5018315;28;20239;-73
2022/02/19 03:28:28;;;;;;;4.90;1.10;;;;;;;4.98;55.33;99107.28;5019117;28;20208;-74
2022/02/19 03:30:58;;;;;;;5.13;1.30;;;;;;;4.94;55.70;99111.69;5022030;28;20616;-74
2022/02/19 03:33:43;;;;;;;2.63;0.90;;;;;;;5.06;55.63;99110.50;5020661;28;20219;-75
2022/02/19 03:36:12;;;;;;;4.33;1.30;;;;;;;5.01;56.93;99125.28;5022111;28;20203;-74
2022/02/19 03:38:38;;;;;;;4.10;1.37;;;;;;;4.94;57.05;99129.75;5018298;28;20207;-74
2022/02/19 03:41:09;;;;;;;3.07;0.90;;;;;;;4.91;57.11;99119.53;5020328;28;20270;-75
2022/02/19 03:43:35;;;;;;;6.40;1.53;;;;;;;4.95;56.76;99126.31;5022635;28;20222;-75
2022/02/19 03:46:05;;;;;;;3.97;1.10;;;;;;;4.98;57.30;99144.31;5015063;28;20311;-74
2022/02/19 03:48:47;;;;;;;6.20;1.10;;;;;;;4.93;57.76;99135.84;5020236;28;20220;-75
2022/02/19 03:51:15;;;;;;;5.27;1.27;;;;;;;4.93;58.12;99135.84;5020349;28;20696;-73
2022/02/19 03:53:44;;;;;;;3.43;1.10;;;;;;;4.84;58.53;99152.44;5014820;28;20578;-74
2022/02/19 03:56:12;;;;;;;3.63;0.87;;;;;;;4.91;57.73;99145.38;5016779;28;20206;-76
2022/02/19 03:58:39;;;;;;;4.77;1.10;;;;;;;4.91;58.06;99137.63;5023016;28;20412;-74
2022/02/19 04:01:09;;;;;;;3.37;1.10;;;;;;;4.93;58.17;99165.09;5021358;28;20224;-74
2022/02/19 04:03:36;;;;;;;3.57;1.03;;;;;;;4.90;58.07;99174.66;5020259;28;20223;-74
2022/02/19 04:06:05;;;;;;;2.73;1.03;;;;;;;4.87;58.41;99165.28;5019526;28;20204;-74
2022/02/19 04:08:31;;;;;;;4.07;0.73;;;;;;;4.88;58.31;99177.28;5018572;28;20286;-74
2022/02/19 04:10:58;;;;;;;2.33;0.97;;;;;;;4.90;57.99;99191.00;5019173;28;20223;-74
2022/02/19 04:13:25;;;;;;;4.80;1.10;;;;;;;4.84;58.63;99208.41;5018091;28;20200;-74
2022/02/19 04:16:03;;;;;;;2.73;1.00;;;;;;;4.77;58.63;99192.22;5018409;28;20224;-75
2022/02/19 04:18:34;;;;;;;3.37;1.07;;;;;;;4.66;59.29;99202.81;5015784;28;20208;-78
2022/02/19 04:21:00;;;;;;;3.23;1.30;;;;;;;4.68;59.00;99216.53;5024108;28;20220;-77
2022/02/19 04:23:27;;;;;;;2.57;0.93;;;;;;;4.64;58.86;99222.63;5016176;28;20205;-74
2022/02/19 04:25:59;;;;;;;4.97;1.37;;;;;;;4.69;58.40;99223.38;5016211;28;20196;-76
2022/02/19 04:28:33;;;;;;;3.00;0.90;;;;;;;4.53;59.83;99212.56;5020480;28;20694;-72
2022/02/19 04:30:59;;;;;;;5.37;1.00;;;;;;;4.49;59.19;99230.75;5016052;28;20250;-74
2022/02/19 04:33:26;;;;;;;6.87;1.23;;;;;;;4.46;59.34;99247.16;5019657;28;20555;-74
2022/02/19 04:35:55;;;;;;;2.33;1.00;;;;;;;4.53;58.95;99256.44;5019823;28;20210;-75
2022/02/19 04:38:24;;;;;;;4.93;1.07;;;;;;;4.48;58.69;99247.97;5020071;28;20210;-73
2022/02/19 04:40:51;;;;;;;3.03;0.90;;;;;;;4.45;58.39;99266.13;5017865;28;20219;-74
2022/02/19 04:43:18;;;;;;;5.00;1.50;;;;;;;4.49;58.41;99254.81;5014990;28;20212;-75
2022/02/19 04:45:47;;;;;;;4.57;0.93;;;;;;;4.51;58.14;99265.13;5017820;28;20562;-75
2022/02/19 04:48:15;;;;;;;4.17;0.97;;;;;;;4.53;58.48;99240.97;5022003;28;20239;-74
2022/02/19 04:50:42;;;;;;;2.03;0.97;;;;;;;4.52;57.40;99290.91;5020536;28;20221;-75
2022/02/19 04:53:10;;;;;;;6.47;1.70;;;;;;;4.55;57.05;99267.56;5019143;28;20632;-74
2022/02/19 04:55:38;;;;;;;4.07;0.90;;;;;;;4.65;55.91;99281.13;5015285;28;20197;-75
2022/02/19 04:58:13;;;;;;;5.73;1.00;;;;;;;4.62;56.58;99273.47;5019295;28;20212;-75
2022/02/19 05:00:40;;;;;;;3.70;0.90;;;;;;;4.64;55.58;99304.41;5022497;28;20311;-77
2022/02/19 05:03:35;;;;;;;2.27;0.80;;;;;;;4.57;56.06;99289.94;5021292;28;20287;-74
2022/02/19 05:06:13;;;;;;;1.97;0.87;;;;;;;4.57;56.00;99285.63;5021154;28;20861;-74
2022/02/19 05:08:48;;;;;;;3.70;0.93;;;;;;;4.54;56.12;99321.84;5012343;28;20294;-74
2022/02/19 05:11:17;;;;;;;3.00;1.00;;;;;;;4.45;56.17;99314.28;5037068;28;20241;-75
2022/02/19 05:13:48;;;;;;;5.27;0.93;;;;;;;4.35;56.40;99342.88;5016736;28;20214;-73
2022/02/19 05:16:14;;;;;;;5.77;1.40;;;;;;;4.32;56.08;99327.47;5019303;28;20775;-73
2022/02/19 05:19:00;;;;;;;3.63;0.90;;;;;;;4.38;55.48;99347.16;5017248;28;20214;-78
2022/02/19 05:21:27;;;;;;;3.20;0.90;;;;;;;4.33;56.41;99323.16;5020661;28;20306;-74
2022/02/19 05:23:58;;;;;;;3.23;0.97;;;;;;;4.29;56.50;99348.19;5018203;28;20207;-76
2022/02/19 05:26:32;;;;;;;3.63;1.00;;;;;;;4.22;57.13;99351.78;5018799;28;20617;-75
2022/02/19 05:29:01;;;;;;;5.67;1.00;;;;;;;4.14;57.70;99357.06;5023700;28;20279;-77
2022/02/19 05:31:30;;;;;;;1.93;0.93;;;;;;;4.10;58.14;99372.66;5013402;28;20223;-74
2022/02/19 05:34:26;;;;;;;10.17;2.40;;;;;;;4.11;57.91;99359.72;5019830;28;20208;-75
2022/02/19 05:36:55;;;;;;;3.43;1.00;;;;;;;4.02;58.58;99374.53;5021988;28;20220;-75
2022/02/19 05:39:23;;;;;;;3.20;0.70;;;;;;;4.07;58.27;99372.72;5019057;28;20199;-75
2022/02/19 05:41:51;;;;;;;4.37;0.90;;;;;;;3.98;59.58;99376.31;5030826;28;20254;-75
2022/02/19 05:44:23;;;;;;;3.87;1.03;;;;;;;4.05;58.60;99371.91;5019200;28;20219;-74
2022/02/19 05:46:52;;;;;;;4.30;1.00;;;;;;;4.12;58.38;99381.22;5023758;28;20199;-73
2022/02/19 05:49:23;;;;;;;6.37;0.90;;;;;;;4.10;58.90;99385.56;5019915;28;20700;-75
2022/02/19 05:52:06;;;;;;;3.90;1.23;;;;;;;4.09;58.93;99381.28;5023504;28;20235;-74
2022/02/19 05:54:37;;;;;;;4.73;0.90;;;;;;;4.12;58.83;99414.75;5020670;28;20200;-74
2022/02/19 05:57:25;;;;;;;3.67;1.00;;;;;;;4.05;59.17;99384.81;5022605;28;20219;-73
2022/02/19 05:59:52;;;;;;;2.83;0.97;;;;;;;3.96;60.03;99390.97;5021062;28;20308;-74
2022/02/19 06:02:20;;;;;;;3.20;1.03;;;;;;;4.10;58.99;99412.19;5021993;28;20707;-73
2022/02/19 06:04:46;;;;;;;4.40;0.90;;;;;;;4.04;59.93;99406.31;5021497;28;20213;-73
2022/02/19 06:07:14;;;;;;;5.90;1.20;;;;;;;4.07;59.34;99408.84;5021473;28;20209;-74
2022/02/19 06:09:41;;;;;;;3.40;0.90;;;;;;;3.96;59.66;99429.66;5020574;28;20421;-73
2022/02/19 06:12:09;;;;;;;6.13;1.17;;;;;;;3.91;59.51;99431.47;5017973;28;20224;-75
2022/02/19 06:14:45;;;;;;;6.00;1.13;;;;;;;3.97;58.63;99442.53;5021610;28;20373;-74
2022/02/19 06:17:12;;;;;;;5.47;1.63;;;;;;;3.93;58.97;99435.72;5020512;28;20339;-75
2022/02/19 06:19:39;;;;;;;2.97;0.90;;;;;;;3.93;58.85;99464.09;5020425;28;20216;-73
2022/02/19 06:22:09;;;;;;;2.27;0.80;;;;;;;3.97;58.85;99462.28;5020359;28;20275;-73
2022/02/19 06:24:38;;;;;;;3.30;0.90;;;;;;;4.00;58.47;99467.41;5022364;28;20204;-74
2022/02/19 06:27:06;;;;;;;4.00;1.10;;;;;;;4.04;58.10;99494.84;5018929;28;20371;-75
2022/02/19 06:29:51;;;;;;;4.63;1.40;;;;;;;3.99;58.78;99476.00;5017030;28;20274;-73
2022/02/19 06:32:24;;;;;;;5.63;1.07;;;;;;;3.86;59.79;99488.28;5020991;28;20224;-75
2022/02/19 06:34:51;;;;;;;5.90;0.70;;;;;;;3.94;58.61;99508.78;5018625;28;20570;-75
2022/02/19 06:37:22;;;;;;;1.70;0.80;;;;;;;4.02;58.40;99513.81;5022545;28;20236;-74
2022/02/19 06:39:50;;;;;;;5.97;0.87;;;;;;;4.11;58.28;99524.81;5018762;28;20286;-75
2022/02/19 06:42:18;;;;;;;3.93;0.70;;;;;;;4.17;58.17;99535.03;5019688;28;20196;-77
2022/02/19 06:45:00;;;;;;;4.60;1.10;;;;;;;4.17;58.20;99545.34;5018950;28;20221;-74
2022/02/19 06:47:31;;;;;;;4.77;1.10;;;;;;;4.26;58.00;99553.84;5018437;28;20669;-75
2022/02/19 06:50:03;;;;;;;3.50;0.77;;;;;;;4.29;58.12;99558.91;5022148;28;20216;-74
2022/02/19 06:52:31;;;;;;;2.67;1.07;;;;;;;4.33;58.14;99579.50;5020705;28;20287;-78
2022/02/19 06:54:57;;;;;;;3.10;0.90;;;;;;;4.38;57.77;99582.00;5025213;28;20204;-74
2022/02/19 06:57:25;;;;;;;3.27;0.90;;;;;;;4.43;58.01;99579.31;5019971;28;20226;-75
2022/02/19 06:59:53;;;;;;;3.47;0.97;;;;;;;4.48;56.87;99591.25;5023944;28;20699;-75
2022/02/19 07:02:22;;;;;;;4.07;1.00;;;;;;;4.57;56.69;99610.06;5016306;28;20254;-72
2022/02/19 07:04:50;;;;;;;6.03;0.90;;;;;;;4.53;57.53;99612.69;5023426;28;20206;-77
2022/02/19 07:07:35;;;;;;;3.77;0.90;;;;;;;4.55;57.62;99612.66;5021915;28;20249;-75
2022/02/19 07:10:04;;;;;;;3.07;1.10;;;;;;;4.59;58.19;99616.03;5019416;28;20220;-74
2022/02/19 07:12:32;;;;;;;3.97;1.00;;;;;;;4.58;57.73;99622.09;5017686;28;20214;-73
2022/02/19 07:14:59;;;;;;;2.63;1.00;;;;;;;4.63;57.57;99631.47;5020499;28;20730;-76
2022/02/19 07:17:47;;;;;;;2.83;1.00;;;;;;;4.64;57.93;99656.38;5018901;28;20216;-76
2022/02/19 07:20:13;;;;;;;2.17;0.73;;;;;;;4.68;57.72;99639.16;5020802;28;20277;-74
2022/02/19 07:22:40;;;;;;;4.80;1.13;;;;;;;4.66;58.45;99644.34;5022611;28;20307;-74
2022/02/19 07:25:07;;;;;;;2.60;1.00;;;;;;;4.67;57.63;99656.34;5021301;28;20249;-74
2022/02/19 07:27:40;;;;;;;3.80;1.00;;;;;;;4.63;58.53;99667.63;5021415;28;20229;-74
2022/02/19 07:30:08;;;;;;;3.33;1.17;;;;;;;4.62;58.64;99673.63;5022655;28;20229;-74
2022/02/19 07:32:35;;;;;;;5.03;0.90;;;;;;;4.65;58.27;99678.75;5019685;28;20220;-74
2022/02/19 07:35:07;;;;;;;3.93;0.90;;;;;;;4.61;59.03;99692.63;5020344;28;20205;-72
2022/02/19 07:37:36;;;;;;;4.90;1.10;;;;;;;4.65;58.62;99703.75;5016525;28;20200;-75
2022/02/19 07:40:03;;;;;;;5.67;1.30;;;;;;;4.60;59.32;99706.38;5021416;28;20712;-74
2022/02/19 07:42:30;;;;;;;2.77;0.93;;;;;;;4.59;60.08;99716.72;5016433;28;20214;-74
2022/02/19 07:45:18;;;;;;;3.13;0.70;;;;;;;4.55;59.89;99736.59;5005970;28;20831;-74
2022/02/19 07:48:20;;;;;;;3.87;1.10;;;;;;;4.59;58.93;99727.94;5019750;28;20216;-74
2022/02/19 08:00:02;;;;;;;5.60;0.90;;;;;;;4.53;60.77;99765.00;5022445;28;20216;-74
2022/02/19 08:02:32;;;;;;;2.97;0.83;;;;;;;4.50;60.64;99779.69;5021231;28;20211;-74
2022/02/19 08:04:59;;;;;;;2.87;1.10;;;;;;;4.51;60.50;99781.41;5017962;28;20197;-74
2022/02/19 08:07:26;;;;;;;3.33;0.90;;;;;;;4.50;60.80;99779.69;5018782;28;20577;-77
2022/02/19 08:09:53;;;;;;;2.90;1.00;;;;;;;4.48;60.75;99800.34;5022474;28;20244;-75
2022/02/19 08:12:19;;;;;;;3.10;1.00;;;;;;;4.49;61.25;99785.75;5019340;28;20630;-75
2022/02/19 08:14:45;;;;;;;2.73;0.80;;;;;;;4.50;61.45;99793.47;5021002;28;20737;-74
2022/02/19 08:17:15;;;;;;;1.67;1.07;;;;;;;4.54;59.93;99807.19;5019966;28;20197;-73
2022/02/19 08:19:42;;;;;;;2.03;1.10;;;;;;;4.54;60.14;99797.69;5021182;28;20592;-74
2022/02/19 08:22:09;;;;;;;4.40;1.90;;;;;;;4.57;59.81;99832.94;5019622;28;20293;-74
2022/02/19 08:24:38;;;;;;;3.03;1.20;;;;;;;4.58;60.83;99839.81;5021356;28;20204;-77
2022/02/19 08:27:08;;;;;;;2.40;1.03;;;;;;;4.59;60.51;99838.09;5020790;28;20242;-73
2022/02/19 08:29:35;;;;;;;7.50;1.70;;;;;;;4.59;60.20;99859.63;5023308;28;20264;-74
2022/02/19 08:32:01;;;;;;;2.33;1.17;;;;;;;4.59;60.28;99846.69;5019061;28;20243;-74
2022/02/19 08:34:28;;;;;;;4.40;1.43;;;;;;;4.59;60.39;99838.97;5017671;28;20287;-73
2022/02/19 08:36:56;;;;;;;2.37;0.90;;;;;;;4.59;60.59;99862.19;5021712;28;20204;-74
2022/02/19 08:39:23;;;;;;;4.53;1.30;;;;;;;4.60;60.23;99866.47;5014800;28;20582;-75
2022/02/19 08:41:49;;;;;;;2.97;1.13;;;;;;;4.60;60.68;99865.63;5020256;28;20199;-74
2022/02/19 08:44:16;;;;;;;4.30;1.13;;;;;;;4.59;60.86;99871.66;5015733;28;20204;-74
2022/02/19 08:46:42;;;;;;;5.53;0.90;;;;;;;4.63;60.15;99875.91;5021938;28;20239;-74
2022/02/19 08:49:09;;;;;;;2.77;0.93;;;;;;;4.62;60.86;99871.63;5016795;28;20552;-74
2022/02/19 08:51:35;;;;;;;2.77;1.37;;;;;;;4.63;59.73;99896.56;5018372;28;20220;-74
2022/02/19 08:54:03;;;;;;;4.47;1.23;;;;;;;4.64;60.27;99896.53;5021376;28;20648;-74
2022/02/19 08:56:30;;;;;;;2.23;1.07;;;;;;;4.64;60.30;99906.84;5020655;28;20242;-74
2022/02/19 08:58:56;;;;;;;1.63;0.70;;;;;;;4.65;60.00;99908.56;5015794;28;20203;-73
2022/02/19 09:01:27;;;;;;;1.37;0.87;;;;;;;4.68;60.04;99908.53;5015881;28;20227;-73
2022/02/19 09:03:54;;;;;;;2.63;0.90;;;;;;;4.67;61.02;99906.81;5026998;28;20204;-73
2022/02/19 09:06:20;;;;;;;4.03;1.00;;;;;;;4.70;60.82;99924.88;5024077;28;20211;-74
2022/02/19 09:08:47;;;;;;;4.07;1.30;;;;;;;4.72;61.65;99922.25;5021386;28;20202;-74
2022/02/19 09:11:15;;;;;;;6.23;1.23;;;;;;;4.73;59.99;99936.88;5019884;28;20262;-74
2022/02/19 09:13:41;;;;;;;5.83;1.00;;;;;;;4.77;60.49;99935.09;5027018;28;20212;-74
2022/02/19 09:16:08;;;;;;;2.37;1.13;;;;;;;4.80;59.59;99935.06;5020691;28;20678;-74
2022/02/19 09:18:34;;;;;;;2.17;1.20;;;;;;;4.86;59.83;99958.25;5017895;28;20203;-74
2022/02/19 09:21:00;;;;;;;3.03;1.30;;;;;;;4.86;60.43;99974.59;5020885;28;20231;-74
2022/02/19 09:23:28;;;;;;;5.23;1.43;;;;;;;4.89;58.97;99969.38;5024527;28;20199;-74
2022/02/19 09:25:54;;;;;;;2.50;1.10;;;;;;;4.91;58.49;99979.72;5023952;28;20220;-74
2022/02/19 09:28:24;;;;;;;1.20;0.93;;;;;;;4.92;58.64;99981.41;5020861;28;20200;-74
2022/02/19 09:30:50;;;;;;;3.13;0.90;;;;;;;4.92;59.46;99976.22;5024297;28;20230;-74
2022/02/19 09:33:20;;;;;;;2.63;0.90;;;;;;;4.92;58.46;99989.16;5021222;28;20600;-74
2022/02/19 09:35:46;;;;;;;3.13;1.00;;;;;;;4.93;58.04;100014.97;5024154;28;20672;-74
2022/02/19 09:38:13;;;;;;;2.10;1.10;;;;;;;4.95;57.36;100012.38;5016047;28;20294;-73
2022/02/19 09:40:41;;;;;;;6.47;1.07;;;;;;;4.98;56.90;100020.09;5017320;28;20311;-74
2022/02/19 09:43:08;;;;;;;3.73;1.53;;;;;;;5.01;58.05;100022.59;5014877;28;20200;-73
2022/02/19 09:45:36;;;;;;;4.57;2.83;;;;;;;5.06;56.89;100031.16;5017372;28;20960;-77
2022/02/19 09:48:10;;;;;;;6.07;3.83;;;;;;;5.15;55.97;100030.19;5024271;28;20585;-74
2022/02/19 09:50:39;;;;;;;5.17;2.17;;;;;;;5.20;56.89;100040.47;5021094;28;20228;-74
2022/02/19 09:53:06;;;;;;;4.60;2.37;;;;;;;5.28;56.35;100033.47;5023225;28;20772;-74
2022/02/19 09:55:33;;;;;;;6.03;2.20;;;;;;;5.34;55.97;100048.88;5017069;28;20201;-74
2022/02/19 09:58:01;;;;;;;4.70;2.27;;;;;;;5.39;55.44;100062.59;5024611;28;20242;-74
2022/02/19 10:00:29;;;;;;;5.20;3.20;;;;;;;5.47;56.21;100050.44;5020403;28;20239;-73
2022/02/19 10:02:57;;;;;;;10.17;5.23;;;;;;;5.58;56.96;100059.78;5016010;28;20212;-74
2022/02/19 10:05:26;;;;;;;3.97;1.83;;;;;;;5.62;54.03;100074.38;5018690;28;20206;-74
2022/02/19 10:08:01;;;;;;;9.63;3.70;;;;;;;5.72;55.44;100073.34;5019461;28;20207;-74
2022/02/19 10:10:28;;;;;;;7.27;4.30;;;;;;;5.78;55.68;100090.50;5020649;28;20220;-74
2022/02/19 10:12:55;;;;;;;6.37;2.40;;;;;;;5.70;53.79;100080.28;5017236;28;20212;-77
2022/02/19 10:15:22;;;;;;;7.80;3.63;;;;;;;5.72;54.69;100094.03;5022893;28;20665;-75
2022/02/19 10:17:49;;;;;;;4.73;2.07;;;;;;;5.72;55.62;100095.75;5018009;28;20681;-73
2022/02/19 10:20:17;;;;;;;5.90;2.37;;;;;;;5.69;54.12;100112.19;5013445;28;20239;-73
2022/02/19 10:22:44;;;;;;;7.53;1.83;;;;;;;5.67;54.36;100132.91;5014588;28;20266;-74
2022/02/19 10:25:13;;;;;;;7.63;2.87;;;;;;;5.65;53.75;100131.22;5018786;28;20212;-74
2022/02/19 10:27:42;;;;;;;7.10;3.17;;;;;;;5.61;53.71;100126.94;5020803;28;21096;-72
2022/02/19 10:30:09;;;;;;;4.27;2.40;;;;;;;5.60;53.44;100139.03;5017747;28;20697;-74
2022/02/19 10:32:48;;;;;;;5.87;2.00;;;;;;;5.60;53.74;100140.78;5019651;28;20347;-74
2022/02/19 10:35:15;;;;;;;3.77;2.63;;;;;;;5.59;54.04;100144.22;5020042;28;20216;-77
2022/02/19 10:37:46;;;;;;;7.30;1.97;;;;;;;5.62;54.86;100154.53;5022163;28;20203;-74
2022/02/19 10:40:34;;;;;;;4.40;2.03;;;;;;;5.59;53.46;100155.41;5025321;28;20685;-74
2022/02/19 10:43:04;;;;;;;5.87;2.23;;;;;;;5.59;54.44;100155.41;5019219;28;20409;-74
2022/02/19 10:45:31;;;;;;;8.13;2.33;;;;;;;5.55;54.27;100147.75;5016420;28;20200;-74
2022/02/19 10:48:19;;;;;;;6.53;1.97;;;;;;;5.49;54.91;100165.03;5015920;28;20548;-76
2022/02/19 10:50:48;;;;;;;6.77;2.17;;;;;;;5.49;54.89;100162.44;5013844;28;20334;-74
2022/02/19 10:53:27;;;;;;;6.57;2.53;;;;;;;5.50;55.96;100174.53;5020055;28;20582;-74
2022/02/19 10:55:56;;;;;;;6.03;1.87;;;;;;;5.45;54.95;100168.56;5014744;28;20220;-75
2022/02/19 10:58:23;;;;;;;5.10;1.40;;;;;;;5.45;54.45;100189.25;5020658;28;20269;-79
2022/02/19 11:00:50;;;;;;;1.83;1.17;;;;;;;5.46;55.25;100197.84;5021424;28;20234;-75
2022/02/19 11:03:17;;;;;;;3.47;1.00;;;;;;;5.44;56.13;100200.44;5017455;28;20677;-74
2022/02/19 11:05:44;;;;;;;3.37;1.50;;;;;;;5.44;54.56;100195.28;5020686;28;20193;-74
2022/02/19 11:08:11;;;;;;;3.30;1.03;;;;;;;5.47;55.85;100207.28;5018922;28;20283;-74
2022/02/19 11:10:39;;;;;;;4.80;1.10;;;;;;;5.44;54.87;100200.44;5019300;28;20604;-74
2022/02/19 11:13:06;;;;;;;1.50;1.00;;;;;;;5.49;54.20;100215.91;5015074;28;20211;-73
2022/02/19 11:15:35;;;;;;;3.77;1.07;;;;;;;5.52;54.76;100228.78;5019779;28;20219;-74
2022/02/19 11:18:05;;;;;;;1.63;0.93;;;;;;;5.54;53.55;100216.72;5015566;28;20231;-74
2022/02/19 11:20:32;;;;;;;3.67;1.40;;;;;;;5.55;52.67;100233.06;5016195;28;20918;-75
2022/02/19 11:22:58;;;;;;;2.50;1.20;;;;;;;5.60;54.10;100233.88;5021091;28;20796;-74
2022/02/19 11:25:25;;;;;;;1.77;1.07;;;;;;;5.56;53.24;100217.56;5020787;28;20196;-74
2022/02/19 11:27:59;;;;;;;2.60;0.93;;;;;;;5.57;53.49;100246.84;5018895;28;20199;-74
2022/02/19 11:30:28;;;;;;;2.93;1.23;;;;;;;5.58;53.99;100223.56;5019201;28;20239;-72
2022/02/19 11:32:56;;;;;;;4.80;1.47;;;;;;;5.58;54.11;100227.88;5021789;28;20318;-74
2022/02/19 11:35:34;;;;;;;5.93;1.20;;;;;;;5.58;53.46;100239.06;5018351;28;20200;-74
2022/02/19 11:38:01;;;;;;;2.63;1.17;;;;;;;5.60;52.37;100236.47;5012735;28;20640;-76
2022/02/19 11:40:27;;;;;;;2.40;1.03;;;;;;;5.61;53.69;100251.09;5015791;28;20789;-73
2022/02/19 11:42:55;;;;;;;1.90;1.00;;;;;;;5.61;52.81;100238.16;5018053;28;20228;-74
2022/02/19 11:45:25;;;;;;;3.27;1.00;;;;;;;5.61;53.74;100279.53;5018687;28;20232;-75
2022/02/19 11:47:55;;;;;;;1.50;0.80;;;;;;;5.58;53.51;100248.56;5019614;28;20195;-73
2022/02/19 11:50:24;;;;;;;5.00;1.20;;;;;;;5.58;53.94;100258.91;5021460;28;20224;-73
2022/02/19 11:53:21;;;;;;;2.37;1.20;;;;;;;5.52;53.70;100261.56;5015571;28;20220;-74
2022/02/19 11:55:48;;;;;;;3.47;1.53;;;;;;;5.51;54.42;100278.81;5010353;28;20208;-74
2022/02/19 11:58:18;;;;;;;2.57;1.30;;;;;;;5.50;54.44;100277.09;5019463;28;20207;-74